DLJ571Y LEZL-GCRR
Flight info
| Callsign | DLJ571Y |
|---|---|
| Flight time | 2h 7m |
| Altitude | 41000 |
| Route | CLANA N857 KORNO/N0402F430 UN857 TERTO |
| Aircraft | C25B/M-SDE2E3FGHRWXY/LB1 |
Departure
| Time | 2026-04-30 10:28 |
|---|---|
| Airport | Seville Airport (LEZL) |
Arrival
| Time | 2026-04-30 12:36 |
|---|---|
| Airport | César Manrique-Lanzarote Airport (GCRR) |
| Time | Latitude | Longitude | Altitude | Speed | Heading |
|---|---|---|---|---|---|
| 2026-04-30 10:14 | 37.42075 | -5.90467 | 89 ft | 0 kts | 269° |
| 2026-04-30 10:21 | 37.42075 | -5.90468 | 89 ft | 1 kts | 269° |
| 2026-04-30 10:22 | 37.42062 | -5.90524 | 90 ft | 9 kts | 197° |
| 2026-04-30 10:22 | 37.41989 | -5.90524 | 89 ft | 12 kts | 153° |
| 2026-04-30 10:22 | 37.41979 | -5.90422 | 89 ft | 13 kts | 90° |
| 2026-04-30 10:22 | 37.41980 | -5.90296 | 90 ft | 16 kts | 89° |
| 2026-04-30 10:23 | 37.41980 | -5.90226 | 90 ft | 17 kts | 90° |
| 2026-04-30 10:23 | 37.41982 | -5.90070 | 90 ft | 19 kts | 88° |
| 2026-04-30 10:23 | 37.41981 | -5.89896 | 91 ft | 21 kts | 90° |
| 2026-04-30 10:24 | 37.41981 | -5.89708 | 92 ft | 22 kts | 89° |
| 2026-04-30 10:24 | 37.41979 | -5.89508 | 93 ft | 23 kts | 94° |
| 2026-04-30 10:24 | 37.41983 | -5.89301 | 94 ft | 24 kts | 90° |
| 2026-04-30 10:24 | 37.41984 | -5.89086 | 96 ft | 25 kts | 90° |
| 2026-04-30 10:25 | 37.41985 | -5.88869 | 97 ft | 26 kts | 91° |
| 2026-04-30 10:25 | 37.41986 | -5.88643 | 99 ft | 26 kts | 89° |
| 2026-04-30 10:25 | 37.41986 | -5.88413 | 100 ft | 27 kts | 89° |
| 2026-04-30 10:25 | 37.41988 | -5.88177 | 101 ft | 27 kts | 90° |
| 2026-04-30 10:26 | 37.41988 | -5.87937 | 102 ft | 28 kts | 90° |
| 2026-04-30 10:26 | 37.41989 | -5.87698 | 104 ft | 27 kts | 90° |
| 2026-04-30 10:26 | 37.41988 | -5.87555 | 105 ft | 14 kts | 90° |
| 2026-04-30 10:26 | 37.41950 | -5.87459 | 107 ft | 12 kts | 139° |
| 2026-04-30 10:27 | 37.41880 | -5.87428 | 111 ft | 10 kts | 179° |
| 2026-04-30 10:27 | 37.41821 | -5.87457 | 112 ft | 9 kts | 220° |
| 2026-04-30 10:27 | 37.41800 | -5.87534 | 111 ft | 11 kts | 280° |
| 2026-04-30 10:27 | 37.41800 | -5.87707 | 108 ft | 55 kts | 270° |
| 2026-04-30 10:28 | 37.41749 | -5.88703 | 153 ft | 162 kts | 266° |
| 2026-04-30 10:28 | 37.41860 | -5.90295 | 1003 ft | 201 kts | 277° |
| 2026-04-30 10:28 | 37.42183 | -5.92131 | 2129 ft | 223 kts | 285° |
| 2026-04-30 10:28 | 37.42799 | -5.93922 | 3403 ft | 234 kts | 295° |
| 2026-04-30 10:29 | 37.43532 | -5.95779 | 4634 ft | 241 kts | 293° |
| 2026-04-30 10:29 | 37.44041 | -5.97790 | 5847 ft | 241 kts | 275° |
| 2026-04-30 10:29 | 37.44028 | -5.99979 | 7051 ft | 259 kts | 258° |
| 2026-04-30 10:29 | 37.43486 | -6.02172 | 8343 ft | 263 kts | 244° |
| 2026-04-30 10:30 | 37.42543 | -6.04046 | 9672 ft | 247 kts | 228° |
| 2026-04-30 10:30 | 37.41322 | -6.05487 | 10847 ft | 235 kts | 216° |
| 2026-04-30 10:30 | 37.39906 | -6.06435 | 11966 ft | 228 kts | 204° |
| 2026-04-30 10:30 | 37.38393 | -6.06930 | 13051 ft | 224 kts | 190° |
| 2026-04-30 10:31 | 37.36850 | -6.06973 | 14098 ft | 221 kts | 179° |
| 2026-04-30 10:31 | 37.35325 | -6.06828 | 15035 ft | 217 kts | 181° |
| 2026-04-30 10:31 | 37.33843 | -6.06735 | 15959 ft | 215 kts | 180° |
| 2026-04-30 10:31 | 37.32355 | -6.06626 | 16903 ft | 213 kts | 181° |
| 2026-04-30 10:32 | 37.30876 | -6.06517 | 17865 ft | 212 kts | 181° |
| 2026-04-30 10:32 | 37.29409 | -6.06405 | 18765 ft | 210 kts | 181° |
| 2026-04-30 10:32 | 37.27952 | -6.06298 | 19585 ft | 209 kts | 181° |
| 2026-04-30 10:32 | 37.26501 | -6.06189 | 20415 ft | 208 kts | 182° |
| 2026-04-30 10:33 | 37.25053 | -6.06082 | 21248 ft | 208 kts | 182° |
| 2026-04-30 10:33 | 37.23611 | -6.05975 | 22091 ft | 207 kts | 182° |
| 2026-04-30 10:33 | 37.22177 | -6.05867 | 22944 ft | 206 kts | 183° |
| 2026-04-30 10:33 | 37.20875 | -6.06354 | 23703 ft | 196 kts | 224° |
| 2026-04-30 10:34 | 37.19968 | -6.07613 | 24419 ft | 194 kts | 225° |
| 2026-04-30 10:34 | 37.18917 | -6.08676 | 25149 ft | 194 kts | 220° |
| 2026-04-30 10:34 | 37.17857 | -6.09710 | 25896 ft | 193 kts | 220° |
| 2026-04-30 10:34 | 37.16791 | -6.10706 | 26634 ft | 193 kts | 220° |
| 2026-04-30 10:35 | 37.15727 | -6.11726 | 27384 ft | 193 kts | 220° |
| 2026-04-30 10:35 | 37.14653 | -6.12737 | 28156 ft | 193 kts | 221° |
| 2026-04-30 10:35 | 37.13588 | -6.13758 | 28946 ft | 192 kts | 221° |
| 2026-04-30 10:35 | 37.12520 | -6.14766 | 29740 ft | 192 kts | 221° |
| 2026-04-30 10:36 | 37.11458 | -6.15779 | 30473 ft | 191 kts | 221° |
| 2026-04-30 10:36 | 37.10396 | -6.16782 | 31124 ft | 191 kts | 221° |
| 2026-04-30 10:36 | 37.09342 | -6.17787 | 31774 ft | 190 kts | 220° |
| 2026-04-30 10:36 | 37.08299 | -6.18771 | 32415 ft | 190 kts | 221° |
| 2026-04-30 10:37 | 37.07250 | -6.19773 | 33054 ft | 190 kts | 220° |
| 2026-04-30 10:37 | 37.06194 | -6.20766 | 33702 ft | 189 kts | 221° |
| 2026-04-30 10:37 | 37.05144 | -6.21767 | 34300 ft | 189 kts | 220° |
| 2026-04-30 10:37 | 37.04093 | -6.22757 | 34840 ft | 189 kts | 221° |
| 2026-04-30 10:38 | 37.03046 | -6.23755 | 35369 ft | 189 kts | 220° |
| 2026-04-30 10:38 | 37.01998 | -6.24740 | 35890 ft | 189 kts | 221° |
| 2026-04-30 10:38 | 37.00952 | -6.25736 | 36412 ft | 189 kts | 221° |
| 2026-04-30 10:38 | 36.99904 | -6.26721 | 36926 ft | 188 kts | 222° |
| 2026-04-30 10:39 | 36.98862 | -6.27713 | 37436 ft | 188 kts | 221° |
| 2026-04-30 10:39 | 36.97813 | -6.28697 | 37936 ft | 188 kts | 222° |
| 2026-04-30 10:39 | 36.96779 | -6.29682 | 38446 ft | 189 kts | 221° |
| 2026-04-30 10:39 | 36.95729 | -6.30666 | 38892 ft | 188 kts | 222° |
| 2026-04-30 10:40 | 36.94682 | -6.31663 | 39272 ft | 189 kts | 221° |
| 2026-04-30 10:40 | 36.93980 | -6.32315 | 39517 ft | 190 kts | 221° |
| 2026-04-30 10:40 | 36.92571 | -6.33656 | 40011 ft | 191 kts | 221° |
| 2026-04-30 10:40 | 36.91863 | -6.34313 | 40259 ft | 192 kts | 221° |
| 2026-04-30 10:41 | 36.90798 | -6.35329 | 40616 ft | 193 kts | 222° |
| 2026-04-30 10:41 | 36.89715 | -6.36337 | 40967 ft | 194 kts | 221° |
| 2026-04-30 10:41 | 36.88617 | -6.37387 | 41084 ft | 207 kts | 222° |
| 2026-04-30 10:41 | 36.87445 | -6.38483 | 41091 ft | 214 kts | 221° |
| 2026-04-30 10:42 | 36.86236 | -6.39629 | 41096 ft | 223 kts | 221° |
| 2026-04-30 10:42 | 36.84971 | -6.40813 | 41100 ft | 232 kts | 221° |
| 2026-04-30 10:42 | 36.83658 | -6.42052 | 41102 ft | 240 kts | 221° |
| 2026-04-30 10:42 | 36.82315 | -6.43310 | 41100 ft | 248 kts | 221° |
| 2026-04-30 10:43 | 36.80917 | -6.44628 | 41098 ft | 256 kts | 221° |
| 2026-04-30 10:43 | 36.79472 | -6.45980 | 41099 ft | 263 kts | 220° |
| 2026-04-30 10:43 | 36.77993 | -6.47374 | 41098 ft | 269 kts | 220° |
| 2026-04-30 10:43 | 36.76473 | -6.48795 | 41096 ft | 276 kts | 220° |
| 2026-04-30 10:44 | 36.74922 | -6.50255 | 41093 ft | 281 kts | 220° |
| 2026-04-30 10:44 | 36.73341 | -6.51733 | 41092 ft | 287 kts | 220° |
| 2026-04-30 10:44 | 36.71731 | -6.53244 | 41092 ft | 292 kts | 220° |
| 2026-04-30 10:44 | 36.70092 | -6.54778 | 41088 ft | 296 kts | 220° |
| 2026-04-30 10:45 | 36.66764 | -6.57891 | 41090 ft | 304 kts | 220° |
| 2026-04-30 10:45 | 36.63337 | -6.61095 | 41091 ft | 311 kts | 220° |
| 2026-04-30 10:46 | 36.59831 | -6.64369 | 41091 ft | 317 kts | 220° |
| 2026-04-30 10:46 | 36.56283 | -6.67676 | 41094 ft | 322 kts | 220° |
| 2026-04-30 10:47 | 36.52671 | -6.71041 | 41099 ft | 327 kts | 220° |
| 2026-04-30 10:47 | 36.49089 | -6.74556 | 41103 ft | 328 kts | 224° |
| 2026-04-30 10:48 | 36.45554 | -6.78204 | 41102 ft | 331 kts | 223° |
| 2026-04-30 10:48 | 36.42009 | -6.81852 | 41106 ft | 334 kts | 223° |
| 2026-04-30 10:49 | 36.38428 | -6.85538 | 41102 ft | 335 kts | 223° |
| 2026-04-30 10:49 | 36.34822 | -6.89244 | 41110 ft | 337 kts | 223° |
| 2026-04-30 10:50 | 36.31213 | -6.92949 | 41114 ft | 337 kts | 223° |
| 2026-04-30 10:50 | 36.27588 | -6.96666 | 41111 ft | 338 kts | 223° |
| 2026-04-30 10:51 | 36.23957 | -7.00386 | 41117 ft | 339 kts | 223° |
| 2026-04-30 10:51 | 36.20319 | -7.04106 | 41114 ft | 339 kts | 223° |
| 2026-04-30 10:52 | 36.16681 | -7.07820 | 41111 ft | 339 kts | 223° |
| 2026-04-30 10:52 | 36.13059 | -7.11513 | 41116 ft | 339 kts | 223° |
| 2026-04-30 10:53 | 36.09417 | -7.15224 | 41112 ft | 339 kts | 223° |
| 2026-04-30 10:53 | 36.05752 | -7.18953 | 41119 ft | 339 kts | 223° |
| 2026-04-30 10:54 | 36.02130 | -7.22634 | 41117 ft | 339 kts | 223° |
| 2026-04-30 10:54 | 35.98489 | -7.26331 | 41115 ft | 339 kts | 223° |
| 2026-04-30 10:55 | 35.94843 | -7.30027 | 41115 ft | 339 kts | 223° |
| 2026-04-30 10:55 | 35.91228 | -7.33681 | 41688 ft | 320 kts | 223° |
| 2026-04-30 10:56 | 35.89566 | -7.35357 | 42514 ft | 298 kts | 223° |
| 2026-04-30 10:56 | 35.88004 | -7.36936 | 43088 ft | 285 kts | 223° |
| 2026-04-30 10:56 | 35.86461 | -7.38509 | 43096 ft | 289 kts | 223° |
| 2026-04-30 10:56 | 35.84895 | -7.40094 | 43102 ft | 293 kts | 223° |
| 2026-04-30 10:57 | 35.83307 | -7.41694 | 43094 ft | 297 kts | 223° |
| 2026-04-30 10:57 | 35.81715 | -7.43293 | 43106 ft | 300 kts | 223° |
| 2026-04-30 10:57 | 35.78427 | -7.46571 | 43105 ft | 307 kts | 223° |
| 2026-04-30 10:58 | 35.75080 | -7.49912 | 43119 ft | 312 kts | 223° |
| 2026-04-30 10:58 | 35.71682 | -7.53298 | 43121 ft | 317 kts | 223° |
| 2026-04-30 10:59 | 35.68229 | -7.56735 | 43114 ft | 321 kts | 223° |
| 2026-04-30 10:59 | 35.64734 | -7.60213 | 43115 ft | 325 kts | 223° |
| 2026-04-30 11:00 | 35.61201 | -7.63723 | 43117 ft | 328 kts | 222° |
| 2026-04-30 11:00 | 35.57632 | -7.67265 | 43119 ft | 331 kts | 223° |
| 2026-04-30 11:01 | 35.54066 | -7.70800 | 43118 ft | 333 kts | 222° |
| 2026-04-30 11:01 | 35.50453 | -7.74378 | 43120 ft | 335 kts | 223° |
| 2026-04-30 11:02 | 35.46814 | -7.77976 | 43120 ft | 336 kts | 222° |
| 2026-04-30 11:02 | 35.43164 | -7.81582 | 43119 ft | 337 kts | 222° |
| 2026-04-30 11:03 | 35.39502 | -7.85207 | 43116 ft | 338 kts | 223° |
| 2026-04-30 11:04 | 35.34053 | -7.90673 | 43116 ft | 339 kts | 223° |
| 2026-04-30 11:04 | 35.30389 | -7.94329 | 43116 ft | 340 kts | 223° |
| 2026-04-30 11:05 | 35.26722 | -7.97986 | 43116 ft | 340 kts | 223° |
| 2026-04-30 11:05 | 35.23048 | -8.01647 | 43116 ft | 340 kts | 223° |
| 2026-04-30 11:06 | 35.19369 | -8.05309 | 43115 ft | 341 kts | 223° |
| 2026-04-30 11:06 | 35.15680 | -8.08976 | 43111 ft | 341 kts | 223° |
| 2026-04-30 11:07 | 35.12016 | -8.12612 | 43112 ft | 342 kts | 223° |
| 2026-04-30 11:07 | 35.08323 | -8.16273 | 43107 ft | 342 kts | 223° |
| 2026-04-30 11:08 | 35.04621 | -8.19937 | 43105 ft | 343 kts | 223° |
| 2026-04-30 11:08 | 35.00919 | -8.23599 | 43101 ft | 343 kts | 222° |
| 2026-04-30 11:09 | 34.97205 | -8.27266 | 43102 ft | 343 kts | 223° |
| 2026-04-30 11:09 | 34.93493 | -8.30930 | 43098 ft | 343 kts | 222° |
| 2026-04-30 11:10 | 34.89782 | -8.34588 | 43097 ft | 343 kts | 223° |
| 2026-04-30 11:10 | 34.86081 | -8.38231 | 43103 ft | 343 kts | 222° |
| 2026-04-30 11:11 | 34.82362 | -8.41889 | 43101 ft | 344 kts | 222° |
| 2026-04-30 11:11 | 34.78644 | -8.45538 | 43099 ft | 344 kts | 222° |
| 2026-04-30 11:12 | 34.74918 | -8.49191 | 43101 ft | 344 kts | 222° |
| 2026-04-30 11:12 | 34.71195 | -8.52838 | 43105 ft | 344 kts | 222° |
| 2026-04-30 11:13 | 34.67491 | -8.56462 | 43104 ft | 344 kts | 222° |
| 2026-04-30 11:13 | 34.63760 | -8.60107 | 43102 ft | 344 kts | 222° |
| 2026-04-30 11:14 | 34.60028 | -8.63751 | 43098 ft | 344 kts | 222° |
| 2026-04-30 11:14 | 34.56297 | -8.67388 | 43103 ft | 344 kts | 222° |
| 2026-04-30 11:15 | 34.52567 | -8.71023 | 43098 ft | 344 kts | 222° |
| 2026-04-30 11:15 | 34.48823 | -8.74662 | 43107 ft | 344 kts | 222° |
| 2026-04-30 11:16 | 34.45087 | -8.78292 | 43105 ft | 344 kts | 222° |
| 2026-04-30 11:16 | 34.41365 | -8.81884 | 43100 ft | 344 kts | 221° |
| 2026-04-30 11:17 | 34.37612 | -8.85490 | 43098 ft | 344 kts | 222° |
| 2026-04-30 11:17 | 34.33861 | -8.89097 | 43106 ft | 344 kts | 221° |
| 2026-04-30 11:18 | 34.30109 | -8.92698 | 43098 ft | 344 kts | 222° |
| 2026-04-30 11:18 | 34.24502 | -8.98070 | 43096 ft | 344 kts | 221° |
| 2026-04-30 11:19 | 34.20744 | -9.01666 | 43100 ft | 344 kts | 221° |
| 2026-04-30 11:19 | 34.16990 | -9.05256 | 43102 ft | 344 kts | 221° |
| 2026-04-30 11:20 | 34.13239 | -9.08837 | 43100 ft | 344 kts | 221° |
| 2026-04-30 11:20 | 34.09485 | -9.12418 | 43102 ft | 344 kts | 221° |
| 2026-04-30 11:21 | 34.05728 | -9.15996 | 43101 ft | 344 kts | 221° |
| 2026-04-30 11:21 | 34.01976 | -9.19567 | 43100 ft | 344 kts | 221° |
| 2026-04-30 11:22 | 33.98220 | -9.23136 | 43100 ft | 344 kts | 221° |
| 2026-04-30 11:22 | 33.94464 | -9.26701 | 43103 ft | 343 kts | 221° |
| 2026-04-30 11:23 | 33.90724 | -9.30246 | 43103 ft | 343 kts | 221° |
| 2026-04-30 11:24 | 33.85104 | -9.35568 | 43100 ft | 343 kts | 221° |
| 2026-04-30 11:24 | 33.81347 | -9.39121 | 43107 ft | 343 kts | 221° |
| 2026-04-30 11:25 | 33.75702 | -9.44451 | 43103 ft | 343 kts | 221° |
| 2026-04-30 11:26 | 33.68812 | -9.50942 | 43104 ft | 344 kts | 221° |
| 2026-04-30 11:26 | 33.65048 | -9.54484 | 43105 ft | 344 kts | 221° |
| 2026-04-30 11:27 | 33.61282 | -9.58021 | 43102 ft | 344 kts | 221° |
| 2026-04-30 11:27 | 33.57519 | -9.61552 | 43106 ft | 344 kts | 221° |
| 2026-04-30 11:28 | 33.51868 | -9.66851 | 43100 ft | 344 kts | 221° |
| 2026-04-30 11:29 | 33.48090 | -9.70385 | 43103 ft | 344 kts | 221° |
| 2026-04-30 11:29 | 33.42451 | -9.75656 | 43105 ft | 344 kts | 221° |
| 2026-04-30 11:30 | 33.36785 | -9.80942 | 43107 ft | 344 kts | 220° |
| 2026-04-30 11:31 | 33.33017 | -9.84452 | 43104 ft | 342 kts | 220° |
| 2026-04-30 11:31 | 33.29276 | -9.87935 | 43087 ft | 339 kts | 220° |
| 2026-04-30 11:32 | 33.25591 | -9.91357 | 43101 ft | 337 kts | 219° |
| 2026-04-30 11:32 | 33.21893 | -9.94794 | 43105 ft | 336 kts | 219° |
| 2026-04-30 11:33 | 33.16355 | -9.99930 | 43104 ft | 335 kts | 219° |
| 2026-04-30 11:33 | 33.12667 | -10.03346 | 43107 ft | 334 kts | 219° |
| 2026-04-30 11:34 | 33.08994 | -10.06742 | 43103 ft | 334 kts | 220° |
| 2026-04-30 11:34 | 33.05323 | -10.10134 | 43103 ft | 333 kts | 220° |
| 2026-04-30 11:35 | 33.01680 | -10.13498 | 43101 ft | 333 kts | 220° |
| 2026-04-30 11:35 | 32.98016 | -10.16871 | 43104 ft | 333 kts | 220° |
| 2026-04-30 11:36 | 32.94348 | -10.20245 | 43104 ft | 332 kts | 220° |
| 2026-04-30 11:36 | 32.90689 | -10.23608 | 43102 ft | 332 kts | 220° |
| 2026-04-30 11:37 | 32.87027 | -10.26969 | 43100 ft | 332 kts | 220° |
| 2026-04-30 11:37 | 32.83366 | -10.30326 | 43102 ft | 332 kts | 220° |
| 2026-04-30 11:38 | 32.79727 | -10.33657 | 43104 ft | 332 kts | 220° |
| 2026-04-30 11:38 | 32.76063 | -10.37009 | 43100 ft | 332 kts | 220° |
| 2026-04-30 11:39 | 32.72397 | -10.40359 | 43107 ft | 332 kts | 220° |
| 2026-04-30 11:39 | 32.68734 | -10.43703 | 43104 ft | 332 kts | 220° |
| 2026-04-30 11:40 | 32.65065 | -10.47049 | 43105 ft | 332 kts | 220° |
| 2026-04-30 11:40 | 32.61393 | -10.50395 | 43101 ft | 333 kts | 220° |
| 2026-04-30 11:41 | 32.57739 | -10.53722 | 43101 ft | 333 kts | 220° |
| 2026-04-30 11:41 | 32.54059 | -10.57065 | 43098 ft | 333 kts | 220° |
| 2026-04-30 11:42 | 32.50382 | -10.60405 | 43097 ft | 333 kts | 220° |
| 2026-04-30 11:42 | 32.46697 | -10.63747 | 43104 ft | 333 kts | 220° |
| 2026-04-30 11:43 | 32.43014 | -10.67084 | 43107 ft | 333 kts | 220° |
| 2026-04-30 11:43 | 32.39325 | -10.70424 | 43112 ft | 334 kts | 220° |
| 2026-04-30 11:44 | 32.35636 | -10.73760 | 43106 ft | 334 kts | 220° |
| 2026-04-30 11:44 | 32.31966 | -10.77076 | 43104 ft | 334 kts | 220° |
| 2026-04-30 11:45 | 32.28264 | -10.80415 | 43101 ft | 334 kts | 220° |
| 2026-04-30 11:45 | 32.24566 | -10.83747 | 43103 ft | 334 kts | 220° |
| 2026-04-30 11:46 | 32.20869 | -10.87077 | 43102 ft | 334 kts | 220° |
| 2026-04-30 11:46 | 32.17165 | -10.90410 | 43108 ft | 335 kts | 220° |
| 2026-04-30 11:47 | 32.13453 | -10.93745 | 43105 ft | 335 kts | 221° |
| 2026-04-30 11:47 | 32.09767 | -10.97056 | 43103 ft | 335 kts | 221° |
| 2026-04-30 11:48 | 32.06051 | -11.00388 | 43106 ft | 335 kts | 221° |
| 2026-04-30 11:48 | 32.02327 | -11.03723 | 43105 ft | 336 kts | 220° |
| 2026-04-30 11:49 | 31.98625 | -11.07036 | 43105 ft | 336 kts | 221° |
| 2026-04-30 11:49 | 31.94897 | -11.10367 | 43108 ft | 336 kts | 221° |
| 2026-04-30 11:50 | 31.91166 | -11.13698 | 43105 ft | 336 kts | 221° |
| 2026-04-30 11:50 | 31.87432 | -11.17029 | 43108 ft | 337 kts | 221° |
| 2026-04-30 11:51 | 31.83695 | -11.20358 | 43107 ft | 337 kts | 221° |
| 2026-04-30 11:51 | 31.79955 | -11.23689 | 43110 ft | 337 kts | 221° |
| 2026-04-30 11:52 | 31.76212 | -11.27017 | 43109 ft | 337 kts | 221° |
| 2026-04-30 11:52 | 31.72473 | -11.30350 | 43106 ft | 337 kts | 221° |
| 2026-04-30 11:53 | 31.68732 | -11.33694 | 42848 ft | 344 kts | 221° |
| 2026-04-30 11:53 | 31.66804 | -11.35408 | 42635 ft | 350 kts | 221° |
| 2026-04-30 11:53 | 31.64853 | -11.37147 | 42408 ft | 355 kts | 221° |
| 2026-04-30 11:54 | 31.62866 | -11.38914 | 42177 ft | 359 kts | 222° |
| 2026-04-30 11:54 | 31.60860 | -11.40705 | 41946 ft | 363 kts | 222° |
| 2026-04-30 11:54 | 31.58845 | -11.42535 | 41730 ft | 367 kts | 222° |
| 2026-04-30 11:54 | 31.56825 | -11.44335 | 41529 ft | 370 kts | 222° |
| 2026-04-30 11:55 | 31.52758 | -11.47917 | 41614 ft | 362 kts | 222° |
| 2026-04-30 11:55 | 31.48769 | -11.51463 | 41613 ft | 358 kts | 222° |
| 2026-04-30 11:56 | 31.44804 | -11.54968 | 41613 ft | 355 kts | 223° |
| 2026-04-30 11:56 | 31.40877 | -11.58443 | 41613 ft | 353 kts | 223° |
| 2026-04-30 11:57 | 31.36968 | -11.61895 | 41612 ft | 351 kts | 223° |
| 2026-04-30 11:57 | 31.33070 | -11.65334 | 41613 ft | 350 kts | 223° |
| 2026-04-30 11:58 | 31.29182 | -11.68760 | 41613 ft | 349 kts | 223° |
| 2026-04-30 11:58 | 31.25322 | -11.72157 | 41615 ft | 349 kts | 223° |
| 2026-04-30 11:59 | 31.21444 | -11.75566 | 41615 ft | 348 kts | 223° |
| 2026-04-30 11:59 | 31.17568 | -11.78972 | 41613 ft | 348 kts | 223° |
| 2026-04-30 12:00 | 31.13691 | -11.82373 | 41618 ft | 348 kts | 223° |
| 2026-04-30 12:00 | 31.09813 | -11.85773 | 41618 ft | 348 kts | 223° |
| 2026-04-30 12:01 | 31.05931 | -11.89172 | 41619 ft | 349 kts | 223° |
| 2026-04-30 12:01 | 31.02069 | -11.92551 | 41619 ft | 349 kts | 223° |
| 2026-04-30 12:02 | 30.98182 | -11.95949 | 41618 ft | 349 kts | 223° |
| 2026-04-30 12:02 | 30.94293 | -11.99343 | 41617 ft | 349 kts | 223° |
| 2026-04-30 12:03 | 30.88449 | -12.04439 | 41620 ft | 350 kts | 223° |
| 2026-04-30 12:04 | 30.84565 | -12.07820 | 41619 ft | 350 kts | 223° |
| 2026-04-30 12:04 | 30.80660 | -12.11216 | 41626 ft | 350 kts | 223° |
| 2026-04-30 12:05 | 30.76444 | -12.14145 | 41622 ft | 358 kts | 212° |
| 2026-04-30 12:05 | 30.71911 | -12.16589 | 41622 ft | 359 kts | 212° |
| 2026-04-30 12:06 | 30.67413 | -12.19099 | 41624 ft | 359 kts | 212° |
| 2026-04-30 12:06 | 30.62894 | -12.21584 | 41621 ft | 360 kts | 212° |
| 2026-04-30 12:07 | 30.58366 | -12.24083 | 41618 ft | 360 kts | 212° |
| 2026-04-30 12:07 | 30.53842 | -12.26573 | 41625 ft | 360 kts | 212° |
| 2026-04-30 12:08 | 30.49312 | -12.29066 | 41622 ft | 360 kts | 212° |
| 2026-04-30 12:08 | 30.44780 | -12.31555 | 41620 ft | 360 kts | 213° |
| 2026-04-30 12:09 | 30.40246 | -12.34045 | 41619 ft | 360 kts | 213° |
| 2026-04-30 12:09 | 30.35744 | -12.36514 | 41618 ft | 361 kts | 213° |
| 2026-04-30 12:10 | 30.31198 | -12.39004 | 41621 ft | 360 kts | 213° |
| 2026-04-30 12:10 | 30.26662 | -12.41488 | 41622 ft | 360 kts | 213° |
| 2026-04-30 12:10 | 30.24375 | -12.42743 | 41332 ft | 368 kts | 213° |
| 2026-04-30 12:11 | 30.22035 | -12.44024 | 41138 ft | 373 kts | 213° |
| 2026-04-30 12:11 | 30.17380 | -12.46556 | 41143 ft | 370 kts | 213° |
| 2026-04-30 12:12 | 30.12730 | -12.49099 | 41137 ft | 368 kts | 213° |
| 2026-04-30 12:12 | 30.08103 | -12.51619 | 41134 ft | 367 kts | 213° |
| 2026-04-30 12:13 | 30.04268 | -12.53708 | 41129 ft | 366 kts | 213° |
| 2026-04-30 12:13 | 29.99669 | -12.56211 | 41124 ft | 365 kts | 214° |
| 2026-04-30 12:14 | 29.95073 | -12.58708 | 41123 ft | 364 kts | 214° |
| 2026-04-30 12:14 | 29.90489 | -12.61200 | 40881 ft | 369 kts | 214° |
| 2026-04-30 12:14 | 29.88116 | -12.62497 | 40291 ft | 385 kts | 214° |
| 2026-04-30 12:15 | 29.85644 | -12.63839 | 39736 ft | 398 kts | 213° |
| 2026-04-30 12:15 | 29.83101 | -12.65208 | 39215 ft | 408 kts | 213° |
| 2026-04-30 12:15 | 29.80502 | -12.66613 | 38702 ft | 417 kts | 214° |
| 2026-04-30 12:15 | 29.77855 | -12.68048 | 38107 ft | 423 kts | 214° |
| 2026-04-30 12:16 | 29.75217 | -12.69473 | 37551 ft | 423 kts | 214° |
| 2026-04-30 12:16 | 29.72577 | -12.70889 | 37000 ft | 413 kts | 214° |
| 2026-04-30 12:16 | 29.69997 | -12.72282 | 36460 ft | 405 kts | 214° |
| 2026-04-30 12:16 | 29.67469 | -12.73652 | 35927 ft | 399 kts | 215° |
| 2026-04-30 12:17 | 29.62592 | -12.76446 | 34899 ft | 382 kts | 220° |
| 2026-04-30 12:17 | 29.60265 | -12.77916 | 34407 ft | 382 kts | 217° |
| 2026-04-30 12:17 | 29.57971 | -12.79368 | 33884 ft | 372 kts | 223° |
| 2026-04-30 12:18 | 29.55843 | -12.81036 | 33342 ft | 367 kts | 226° |
| 2026-04-30 12:18 | 29.53766 | -12.82731 | 32820 ft | 368 kts | 225° |
| 2026-04-30 12:18 | 29.51587 | -12.84295 | 32314 ft | 371 kts | 221° |
| 2026-04-30 12:18 | 29.49360 | -12.85791 | 31825 ft | 368 kts | 221° |
| 2026-04-30 12:19 | 29.47197 | -12.87331 | 31347 ft | 364 kts | 223° |
| 2026-04-30 12:19 | 29.45068 | -12.88890 | 30884 ft | 362 kts | 223° |
| 2026-04-30 12:19 | 29.42960 | -12.90405 | 30442 ft | 361 kts | 222° |
| 2026-04-30 12:19 | 29.40829 | -12.91914 | 29959 ft | 359 kts | 222° |
| 2026-04-30 12:20 | 29.38711 | -12.93421 | 29444 ft | 357 kts | 222° |
| 2026-04-30 12:20 | 29.36615 | -12.94920 | 28949 ft | 354 kts | 222° |
| 2026-04-30 12:20 | 29.34517 | -12.96420 | 28462 ft | 352 kts | 221° |
| 2026-04-30 12:20 | 29.32444 | -12.97895 | 27995 ft | 349 kts | 221° |
| 2026-04-30 12:21 | 29.30384 | -12.99363 | 27537 ft | 347 kts | 221° |
| 2026-04-30 12:21 | 29.28340 | -13.00817 | 27087 ft | 345 kts | 221° |
| 2026-04-30 12:21 | 29.26312 | -13.02265 | 26648 ft | 343 kts | 221° |
| 2026-04-30 12:21 | 29.24313 | -13.03683 | 26224 ft | 340 kts | 221° |
| 2026-04-30 12:22 | 29.22306 | -13.05114 | 25811 ft | 338 kts | 220° |
| 2026-04-30 12:22 | 29.20317 | -13.06524 | 25399 ft | 336 kts | 220° |
| 2026-04-30 12:22 | 29.18335 | -13.07937 | 24997 ft | 334 kts | 220° |
| 2026-04-30 12:22 | 29.16361 | -13.09334 | 24607 ft | 332 kts | 220° |
| 2026-04-30 12:23 | 29.14405 | -13.10726 | 24224 ft | 331 kts | 220° |
| 2026-04-30 12:23 | 29.12444 | -13.12116 | 23852 ft | 330 kts | 220° |
| 2026-04-30 12:23 | 29.10493 | -13.13504 | 23427 ft | 329 kts | 219° |
| 2026-04-30 12:23 | 29.08543 | -13.14882 | 22985 ft | 329 kts | 219° |
| 2026-04-30 12:24 | 29.06605 | -13.16258 | 22565 ft | 327 kts | 219° |
| 2026-04-30 12:24 | 29.04688 | -13.17612 | 22148 ft | 327 kts | 219° |
| 2026-04-30 12:24 | 29.02763 | -13.18978 | 21739 ft | 325 kts | 219° |
| 2026-04-30 12:24 | 29.00837 | -13.20340 | 21340 ft | 324 kts | 218° |
| 2026-04-30 12:25 | 28.98923 | -13.21694 | 20948 ft | 323 kts | 219° |
| 2026-04-30 12:25 | 28.97011 | -13.23046 | 20564 ft | 322 kts | 218° |
| 2026-04-30 12:25 | 28.95107 | -13.24391 | 20190 ft | 321 kts | 218° |
| 2026-04-30 12:25 | 28.93225 | -13.25765 | 19818 ft | 319 kts | 219° |
| 2026-04-30 12:26 | 28.91342 | -13.27101 | 19457 ft | 318 kts | 217° |
| 2026-04-30 12:26 | 28.89458 | -13.28412 | 19101 ft | 315 kts | 217° |
| 2026-04-30 12:26 | 28.87595 | -13.29720 | 18707 ft | 314 kts | 217° |
| 2026-04-30 12:26 | 28.85718 | -13.31048 | 18043 ft | 318 kts | 217° |
| 2026-04-30 12:27 | 28.83842 | -13.32368 | 17337 ft | 316 kts | 216° |
| 2026-04-30 12:27 | 28.81971 | -13.33676 | 16635 ft | 315 kts | 216° |
| 2026-04-30 12:27 | 28.80113 | -13.34990 | 15948 ft | 313 kts | 216° |
| 2026-04-30 12:27 | 28.78316 | -13.36342 | 15268 ft | 305 kts | 224° |
| 2026-04-30 12:28 | 28.77229 | -13.38293 | 14584 ft | 293 kts | 255° |
| 2026-04-30 12:28 | 28.76882 | -13.40562 | 13941 ft | 288 kts | 264° |
| 2026-04-30 12:28 | 28.76583 | -13.42810 | 13215 ft | 284 kts | 261° |
| 2026-04-30 12:28 | 28.76095 | -13.44974 | 12506 ft | 279 kts | 254° |
| 2026-04-30 12:29 | 28.75476 | -13.47019 | 11822 ft | 274 kts | 252° |
| 2026-04-30 12:29 | 28.74915 | -13.49070 | 11145 ft | 269 kts | 255° |
| 2026-04-30 12:29 | 28.74390 | -13.51104 | 10479 ft | 265 kts | 254° |
| 2026-04-30 12:29 | 28.73903 | -13.53108 | 9801 ft | 258 kts | 261° |
| 2026-04-30 12:30 | 28.74171 | -13.55092 | 9057 ft | 256 kts | 292° |
| 2026-04-30 12:30 | 28.74925 | -13.56877 | 8346 ft | 235 kts | 294° |
| 2026-04-30 12:30 | 28.75492 | -13.58577 | 7656 ft | 230 kts | 289° |
| 2026-04-30 12:30 | 28.75992 | -13.60330 | 6987 ft | 235 kts | 288° |
| 2026-04-30 12:31 | 28.76494 | -13.62112 | 6320 ft | 236 kts | 289° |
| 2026-04-30 12:31 | 28.77258 | -13.63734 | 5602 ft | 222 kts | 307° |
| 2026-04-30 12:31 | 28.78239 | -13.64972 | 4904 ft | 208 kts | 317° |
| 2026-04-30 12:31 | 28.79456 | -13.65906 | 4199 ft | 219 kts | 331° |
| 2026-04-30 12:32 | 28.80899 | -13.66531 | 3500 ft | 226 kts | 346° |
| 2026-04-30 12:32 | 28.82474 | -13.66729 | 2798 ft | 230 kts | 360° |
| 2026-04-30 12:32 | 28.84044 | -13.66435 | 2310 ft | 224 kts | 18° |
| 2026-04-30 12:32 | 28.85329 | -13.65626 | 2289 ft | 201 kts | 38° |
| 2026-04-30 12:33 | 28.86333 | -13.64656 | 2279 ft | 178 kts | 26° |
| 2026-04-30 12:33 | 28.87486 | -13.64452 | 2288 ft | 157 kts | 6° |
| 2026-04-30 12:33 | 28.88426 | -13.64035 | 2285 ft | 136 kts | 30° |
| 2026-04-30 12:33 | 28.89187 | -13.63608 | 2286 ft | 106 kts | 22° |
| 2026-04-30 12:34 | 28.89799 | -13.63306 | 2169 ft | 93 kts | 23° |
| 2026-04-30 12:34 | 28.90423 | -13.62982 | 1804 ft | 104 kts | 24° |
| 2026-04-30 12:34 | 28.91103 | -13.62589 | 1350 ft | 112 kts | 28° |
| 2026-04-30 12:34 | 28.91830 | -13.62135 | 689 ft | 128 kts | 30° |
| 2026-04-30 12:35 | 28.92583 | -13.61678 | 336 ft | 118 kts | 31° |
| 2026-04-30 12:35 | 28.93312 | -13.61252 | 150 ft | 119 kts | 30° |
| 2026-04-30 12:35 | 28.94024 | -13.60837 | 40 ft | 105 kts | 29° |
| 2026-04-30 12:35 | 28.94571 | -13.60508 | 37 ft | 65 kts | 30° |
| 2026-04-30 12:36 | 28.94697 | -13.60431 | 40 ft | 0 kts | 26° |